Time;durP1;ratioP1;P1;durP2;ratioP2;P2;SDS_P1;SDS_P2;PMS_P1;PMS_P2;Temp;Humidity;BMP_temperature;BMP_pressure;BME280_temperature;BME280_humidity;BME280_pressure;Samples;Min_cycle;Max_cycle;Signal;HPM_P1;HPM_P2
2023/12/01 00:02:01;;;;;;;17.53;8.77;;;3.50;99.90;;;;;;4902350;29;20122;-79
2023/12/01 00:04:27;;;;;;;23.03;9.70;;;3.50;99.90;;;;;;4901773;29;20401;-79
2023/12/01 00:06:52;;;;;;;19.03;8.80;;;3.50;99.90;;;;;;4902192;29;20032;-79
2023/12/01 00:09:18;;;;;;;16.13;8.50;;;3.50;99.90;;;;;;4902166;29;20032;-79
2023/12/01 00:11:44;;;;;;;17.40;8.23;;;3.50;99.90;;;;;;4901472;29;20032;-79
2023/12/01 00:14:09;;;;;;;15.90;8.20;;;3.50;99.90;;;;;;4919156;29;20087;-79
2023/12/01 00:16:35;;;;;;;18.67;9.13;;;3.50;99.90;;;;;;4900616;29;20028;-79
2023/12/01 00:19:00;;;;;;;16.63;8.07;;;3.40;99.90;;;;;;4918942;29;20087;-77
2023/12/01 00:21:26;;;;;;;21.27;8.77;;;3.40;99.90;;;;;;4900686;29;20064;-78
2023/12/01 00:23:52;;;;;;;18.33;8.10;;;3.40;99.90;;;;;;4918383;29;20040;-78
2023/12/01 00:26:17;;;;;;;18.47;9.00;;;3.40;99.90;;;;;;4918576;29;20486;-78
2023/12/01 00:28:43;;;;;;;20.37;9.23;;;3.40;99.90;;;;;;4918137;29;20115;-78
2023/12/01 00:31:08;;;;;;;17.90;8.73;;;3.40;99.90;;;;;;4900579;29;20040;-78
2023/12/01 00:33:34;;;;;;;22.03;9.17;;;3.40;99.90;;;;;;4918052;29;20028;-79
2023/12/01 00:36:00;;;;;;;22.30;9.90;;;3.40;99.90;;;;;;4901674;29;20057;-80
2023/12/01 00:38:26;;;;;;;22.17;9.67;;;3.40;99.90;;;;;;4901427;29;20039;-78
2023/12/01 00:40:52;;;;;;;19.37;9.53;;;3.40;99.90;;;;;;4901932;29;20522;-78
2023/12/01 00:43:18;;;;;;;23.13;10.03;;;3.40;99.90;;;;;;4918479;29;20155;-78
2023/12/01 00:45:43;;;;;;;19.87;9.10;;;3.40;99.90;;;;;;4899646;29;20127;-79
2023/12/01 00:48:09;;;;;;;19.63;9.03;;;3.40;99.90;;;;;;4901102;29;20103;-79
2023/12/01 00:50:35;;;;;;;21.03;9.83;;;3.40;99.90;;;;;;4906149;29;20212;-78
2023/12/01 00:53:00;;;;;;;21.13;9.90;;;3.40;99.90;;;;;;4916947;29;20417;-78
2023/12/01 00:55:26;;;;;;;15.40;8.87;;;3.40;99.90;;;;;;4916180;29;20036;-78
2023/12/01 00:57:53;;;;;;;19.40;9.30;;;3.40;99.90;;;;;;4917202;29;20443;-77
2023/12/01 01:00:22;;;;;;;18.07;9.57;;;3.40;99.90;;;;;;4917046;29;20393;-78
2023/12/01 01:02:48;;;;;;;21.43;10.13;;;3.40;99.90;;;;;;4916978;29;20068;-78
2023/12/01 01:05:13;;;;;;;17.90;8.63;;;3.40;99.90;;;;;;4915969;29;20067;-79
2023/12/01 01:07:39;;;;;;;19.57;9.30;;;3.40;99.90;;;;;;4916566;29;20457;-78
2023/12/01 01:10:05;;;;;;;17.97;9.43;;;3.40;99.90;;;;;;4916617;29;20032;-79
2023/12/01 01:12:31;;;;;;;17.73;9.20;;;3.40;99.90;;;;;;4916280;29;20474;-79
2023/12/01 01:14:56;;;;;;;17.77;9.13;;;3.40;99.90;;;;;;4917899;29;20092;-78
2023/12/01 01:17:22;;;;;;;19.37;9.10;;;3.40;99.90;;;;;;4916144;29;20050;-79
2023/12/01 01:19:47;;;;;;;18.70;8.97;;;3.40;99.90;;;;;;4916471;29;20040;-78
2023/12/01 01:22:13;;;;;;;18.50;8.67;;;3.40;99.90;;;;;;4916756;29;20040;-78
2023/12/01 01:24:38;;;;;;;17.90;8.30;;;3.40;99.90;;;;;;4915793;29;20389;-79
2023/12/01 01:27:04;;;;;;;20.93;8.73;;;3.40;99.90;;;;;;4917824;29;20089;-79
2023/12/01 01:29:30;;;;;;;15.70;8.27;;;3.40;99.90;;;;;;4917223;29;20035;-79
2023/12/01 01:31:55;;;;;;;17.17;8.30;;;3.40;99.90;;;;;;4917598;29;20071;-78
2023/12/01 01:34:21;;;;;;;16.17;8.43;;;3.40;99.90;;;;;;4916369;29;20039;-78
2023/12/01 01:36:47;;;;;;;16.10;8.90;;;3.40;99.90;;;;;;4916483;29;20028;-78
2023/12/01 01:39:12;;;;;;;18.00;8.60;;;3.40;99.90;;;;;;4916557;29;20387;-77
2023/12/01 01:41:38;;;;;;;18.23;8.97;;;3.40;99.90;;;;;;4916813;29;20039;-78
2023/12/01 01:44:04;;;;;;;21.23;8.97;;;3.40;99.90;;;;;;4917008;29;20036;-78
2023/12/01 01:46:30;;;;;;;16.37;8.43;;;3.40;99.90;;;;;;4915887;29;20040;-78
2023/12/01 01:48:56;;;;;;;18.60;8.27;;;3.40;99.90;;;;;;4916701;29;20035;-79
2023/12/01 01:51:22;;;;;;;20.00;9.10;;;3.40;99.90;;;;;;4915421;29;20048;-81
2023/12/01 01:53:47;;;;;;;19.27;9.37;;;3.40;99.90;;;;;;4916281;29;20044;-80
2023/12/01 01:56:15;;;;;;;21.00;9.67;;;3.40;99.90;;;;;;4917409;29;20052;-78
2023/12/01 01:58:42;;;;;;;21.63;9.97;;;3.30;99.90;;;;;;4915051;29;20067;-78
2023/12/01 02:01:07;;;;;;;20.53;10.23;;;3.40;99.90;;;;;;4916176;29;20032;-78
2023/12/01 02:03:34;;;;;;;18.33;9.83;;;3.30;99.90;;;;;;4916691;29;20443;-78
2023/12/01 02:06:06;;;;;;;22.07;10.67;;;3.40;99.90;;;;;;4914355;29;20036;-79
2023/12/01 02:08:33;;;;;;;;;;;3.30;99.90;;;;;;4916182;29;20032;-79
2023/12/01 02:11:00;;;;;;;20.40;9.67;;;3.40;99.90;;;;;;4916175;29;20368;-79
2023/12/01 02:13:25;;;;;;;25.13;11.40;;;3.40;99.90;;;;;;4915945;29;20127;-79
2023/12/01 02:15:52;;;;;;;26.90;10.87;;;3.40;99.90;;;;;;4915629;29;20545;-78
2023/12/01 02:18:22;;;;;;;23.50;10.73;;;3.40;99.90;;;;;;4913472;29;20115;-79
2023/12/01 02:20:50;;;;;;;23.73;11.40;;;3.40;99.90;;;;;;4914400;29;20032;-78
2023/12/01 02:23:15;;;;;;;23.47;10.93;;;3.40;99.90;;;;;;4916673;29;20047;-79
2023/12/01 02:25:41;;;;;;;25.50;11.97;;;3.40;99.90;;;;;;4915196;29;20353;-79
2023/12/01 02:28:06;;;;;;;22.67;9.90;;;3.40;99.90;;;;;;4915905;29;20156;-79
2023/12/01 02:30:32;;;;;;;23.33;11.57;;;3.40;99.90;;;;;;4915227;29;20028;-78
2023/12/01 02:32:57;;;;;;;21.57;10.77;;;3.40;99.90;;;;;;4915312;29;20478;-79
2023/12/01 02:35:29;;;;;;;24.37;11.10;;;3.40;99.90;;;;;;4916352;29;20039;-79
2023/12/01 02:37:59;;;;;;;21.40;10.98;;;3.30;99.90;;;;;;4915326;29;20107;-79
2023/12/01 02:40:31;;;;;;;22.53;10.77;;;3.40;99.90;;;;;;5099019;27;20935;-78
2023/12/01 02:42:56;;;;;;;23.77;11.47;;;3.40;99.90;;;;;;5099304;28;20036;-79
2023/12/01 02:45:22;;;;;;;23.13;11.03;;;3.40;99.90;;;;;;5100840;28;20028;-81
2023/12/01 02:47:49;;;;;;;20.67;9.77;;;3.40;99.90;;;;;;5099471;28;20028;-78
2023/12/01 02:50:16;;;;;;;24.37;10.87;;;3.40;99.90;;;;;;5099169;28;20025;-78
2023/12/01 02:52:41;;;;;;;17.50;9.50;;;3.40;99.90;;;;;;5098976;28;20036;-79
2023/12/01 02:55:08;;;;;;;20.10;9.80;;;3.40;99.90;;;;;;5098604;28;20024;-78
2023/12/01 02:57:39;;;;;;;66.77;23.57;;;3.40;99.90;;;;;;5097592;28;20939;-79
2023/12/01 03:00:08;;;;;;;20.55;9.68;;;3.40;99.90;;;;;;5099063;28;20065;-79
2023/12/01 03:02:34;;;;;;;26.73;11.23;;;3.40;99.90;;;;;;5100630;28;20047;-80
2023/12/01 03:05:00;;;;;;;22.40;10.30;;;3.40;99.90;;;;;;5099861;28;20029;-78
2023/12/01 03:07:26;;;;;;;21.90;9.90;;;3.40;99.90;;;;;;5097300;28;20027;-78
2023/12/01 03:09:51;;;;;;;21.60;10.53;;;3.40;99.90;;;;;;5097452;28;20032;-78
2023/12/01 03:12:17;;;;;;;23.90;11.03;;;3.40;99.90;;;;;;5097803;28;20020;-78
2023/12/01 03:14:42;;;;;;;22.83;10.20;;;3.40;99.90;;;;;;5097799;28;20574;-78
2023/12/01 03:17:08;;;;;;;26.50;10.93;;;3.40;99.90;;;;;;5098864;28;20027;-77
2023/12/01 03:19:34;;;;;;;26.20;10.83;;;3.50;99.90;;;;;;5098778;28;20046;-78
2023/12/01 03:21:59;;;;;;;26.07;12.03;;;3.40;99.90;;;;;;5098777;28;20111;-79
2023/12/01 03:24:25;;;;;;;25.73;11.67;;;3.40;99.90;;;;;;5098260;28;20077;-78
2023/12/01 03:26:51;;;;;;;24.07;11.50;;;3.40;99.90;;;;;;5100645;28;20021;-78
2023/12/01 03:29:16;;;;;;;26.67;11.70;;;3.40;99.90;;;;;;5104602;28;20502;-79
2023/12/01 03:31:42;;;;;;;24.13;11.07;;;3.50;99.90;;;;;;5103155;28;20328;-79
2023/12/01 03:34:07;;;;;;;29.80;12.67;;;3.40;99.90;;;;;;5098951;28;20024;-79
2023/12/01 03:36:33;;;;;;;27.60;11.77;;;3.40;99.90;;;;;;5097437;28;20028;-78
2023/12/01 03:38:59;;;;;;;31.07;12.30;;;3.40;99.90;;;;;;5098437;28;20106;-79
2023/12/01 03:41:24;;;;;;;30.37;13.27;;;3.40;99.90;;;;;;5123302;28;20047;-80
2023/12/01 03:43:50;;;;;;;31.57;13.83;;;3.40;99.90;;;;;;5097992;28;20066;-79
2023/12/01 03:46:16;;;;;;;25.57;12.40;;;3.40;99.90;;;;;;5098085;28;20111;-78
2023/12/01 03:48:41;;;;;;;27.50;12.67;;;3.40;99.90;;;;;;5097415;28;20027;-78
2023/12/01 03:51:11;;;;;;;30.37;12.80;;;3.30;99.90;;;;;;5089506;28;20099;-78
2023/12/01 03:53:37;;;;;;;28.77;12.87;;;3.30;99.90;;;;;;5084693;28;20032;-78
2023/12/01 03:56:03;;;;;;;28.47;12.17;;;3.30;99.90;;;;;;5083865;28;20537;-78
2023/12/01 03:58:29;;;;;;;28.10;11.87;;;3.30;99.90;;;;;;5084757;28;20036;-79
2023/12/01 04:00:55;;;;;;;28.57;12.60;;;3.30;99.90;;;;;;5083750;28;20074;-79
2023/12/01 04:03:24;;;;;;;27.13;11.67;;;3.40;99.90;;;;;;5083762;28;20079;-78
2023/12/01 04:05:50;;;;;;;26.57;11.93;;;3.40;99.90;;;;;;5083363;28;20124;-77
2023/12/01 04:08:15;;;;;;;29.77;12.03;;;3.30;99.90;;;;;;5085489;28;20045;-78
2023/12/01 04:10:42;;;;;;;28.13;12.30;;;3.30;99.90;;;;;;5083542;28;20020;-78
2023/12/01 04:13:08;;;;;;;28.33;13.30;;;3.30;99.90;;;;;;5083600;28;20055;-78
2023/12/01 04:15:36;;;;;;;29.67;11.83;;;3.30;99.90;;;;;;5084708;28;20032;-79
2023/12/01 04:18:06;;;;;;;28.50;12.83;;;3.30;99.90;;;;;;5084954;28;20518;-77
2023/12/01 04:20:35;;;;;;;30.97;12.63;;;3.30;99.90;;;;;;5083630;28;20477;-78
2023/12/01 04:23:02;;;;;;;26.33;12.40;;;3.30;99.90;;;;;;5084567;28;20020;-78
2023/12/01 04:25:29;;;;;;;33.97;13.27;;;3.30;99.90;;;;;;5083693;28;20031;-77
2023/12/01 04:27:56;;;;;;;28.53;12.67;;;3.30;99.90;;;;;;5084482;28;20025;-78
2023/12/01 04:30:23;;;;;;;29.23;13.00;;;3.20;99.90;;;;;;5083337;28;20024;-78
2023/12/01 04:32:55;;;;;;;25.50;12.27;;;3.20;99.90;;;;;;5082633;28;20024;-78
2023/12/01 04:35:32;;;;;;;28.77;11.70;;;3.20;99.90;;;;;;5084106;28;20035;-77
2023/12/01 04:38:00;;;;;;;26.97;11.93;;;3.20;99.90;;;;;;5085100;28;20091;-78
2023/12/01 04:40:27;;;;;;;24.70;11.77;;;3.20;99.90;;;;;;5082189;28;20082;-78
2023/12/01 04:42:56;;;;;;;28.50;12.47;;;3.20;99.90;;;;;;5082072;28;20024;-77
2023/12/01 04:45:25;;;;;;;26.43;11.60;;;3.10;99.90;;;;;;5108528;28;20461;-78
2023/12/01 04:47:53;;;;;;;27.20;12.43;;;3.10;99.90;;;;;;5108715;28;20031;-77
2023/12/01 04:50:24;;;;;;;26.60;12.03;;;3.10;99.90;;;;;;5085108;28;20465;-78
2023/12/01 04:52:52;;;;;;;23.77;11.43;;;3.10;99.90;;;;;;5083612;28;20114;-77
2023/12/01 04:55:20;;;;;;;26.67;11.73;;;3.10;99.90;;;;;;5083442;28;20024;-76
2023/12/01 04:57:47;;;;;;;26.57;12.43;;;3.10;99.90;;;;;;5083251;28;20487;-77
2023/12/01 05:00:23;;;;;;;23.83;11.20;;;3.10;99.90;;;;;;5083078;28;20032;-77
2023/12/01 05:03:05;;;;;;;21.83;10.53;;;3.10;99.90;;;;;;5106478;28;20028;-78
2023/12/01 05:05:33;;;;;;;22.93;11.53;;;3.20;99.90;;;;;;5083892;28;20120;-77
2023/12/01 05:08:04;;;;;;;26.40;12.07;;;3.20;99.90;;;;;;5083729;28;20067;-77
2023/12/01 05:10:32;;;;;;;24.60;11.32;;;3.10;99.90;;;;;;5082223;28;20062;-78
2023/12/01 05:12:59;;;;;;;23.23;10.77;;;3.10;99.90;;;;;;5082294;28;20024;-77
2023/12/01 05:15:30;;;;;;;27.03;11.57;;;3.00;99.90;;;;;;5083032;28;20031;-78
2023/12/01 05:18:00;;;;;;;26.07;12.20;;;3.00;99.90;;;;;;5082168;28;20468;-79
2023/12/01 05:20:27;;;;;;;24.47;11.27;;;3.00;99.90;;;;;;5082637;28;20082;-78
2023/12/01 05:23:05;;;;;;;26.50;11.93;;;3.00;99.90;;;;;;5082037;28;20465;-78
2023/12/01 05:25:32;;;;;;;23.33;11.20;;;3.00;99.90;;;;;;5107685;28;20074;-79
2023/12/01 05:28:08;;;;;;;24.50;10.93;;;3.00;99.90;;;;;;5081439;28;20115;-78
2023/12/01 05:30:36;;;;;;;27.30;12.57;;;3.00;99.90;;;;;;5081334;28;20028;-78
2023/12/01 05:33:04;;;;;;;26.83;12.23;;;2.90;99.90;;;;;;5082426;28;20082;-77
2023/12/01 05:35:31;;;;;;;25.03;12.23;;;2.90;99.90;;;;;;5082127;28;20062;-79
2023/12/01 05:37:58;;;;;;;27.63;11.70;;;2.90;99.90;;;;;;5081237;28;20028;-77
2023/12/01 05:40:28;;;;;;;25.67;11.83;;;2.90;99.90;;;;;;5082265;28;20262;-77
2023/12/01 05:42:55;;;;;;;28.20;11.60;;;2.90;99.90;;;;;;5107075;28;20028;-76
2023/12/01 05:45:22;;;;;;;25.80;11.77;;;2.90;99.90;;;;;;5081676;28;20024;-77
2023/12/01 05:47:52;;;;;;;29.33;12.63;;;2.90;99.90;;;;;;5080924;28;20024;-77
2023/12/01 05:50:29;;;;;;;25.73;11.23;;;2.90;99.90;;;;;;5082599;28;20039;-77
2023/12/01 05:52:56;;;;;;;25.87;11.50;;;2.90;99.90;;;;;;5082811;28;20055;-78
2023/12/01 05:55:24;;;;;;;24.83;10.80;;;2.80;99.90;;;;;;5081944;28;20024;-78
2023/12/01 05:57:52;;;;;;;22.57;12.27;;;2.80;99.90;;;;;;5081072;28;20046;-78
2023/12/01 06:00:31;;;;;;;23.13;10.83;;;2.80;99.90;;;;;;5081016;28;20043;-77
2023/12/01 06:03:03;;;;;;;23.97;10.97;;;2.80;99.90;;;;;;5082630;28;20032;-78
2023/12/01 06:05:29;;;;;;;28.83;12.17;;;2.80;99.90;;;;;;5084265;28;20059;-77
2023/12/01 06:07:56;;;;;;;24.50;11.37;;;2.80;99.90;;;;;;5083285;28;20077;-78
2023/12/01 06:10:23;;;;;;;23.70;11.50;;;2.70;99.90;;;;;;5080910;28;20036;-77
2023/12/01 06:12:49;;;;;;;23.87;10.63;;;2.70;99.90;;;;;;5080828;28;20116;-76
2023/12/01 06:15:16;;;;;;;26.20;12.53;;;2.70;99.90;;;;;;5082481;28;20107;-78
2023/12/01 06:17:50;;;;;;;26.10;12.17;;;2.80;99.90;;;;;;5080452;28;20115;-77
2023/12/01 06:20:18;;;;;;;24.77;11.47;;;2.80;99.90;;;;;;5081260;28;20037;-77
2023/12/01 06:22:47;;;;;;;22.30;11.40;;;2.80;99.90;;;;;;5080274;28;20028;-76
2023/12/01 06:25:27;;;;;;;24.80;11.77;;;2.80;99.90;;;;;;5106614;28;20050;-76
2023/12/01 06:27:57;;;;;;;24.00;10.67;;;2.80;99.90;;;;;;5092552;28;20072;-75
2023/12/01 06:30:27;;;;;;;22.13;10.57;;;2.80;99.90;;;;;;5093325;28;20131;-77
2023/12/01 06:32:53;;;;;;;23.43;10.70;;;2.80;99.90;;;;;;5092942;28;20836;-77
2023/12/01 06:35:20;;;;;;;23.70;10.53;;;2.70;99.90;;;;;;5092393;28;20480;-77
2023/12/01 06:37:47;;;;;;;27.70;11.80;;;2.80;99.90;;;;;;5091995;28;20024;-77
2023/12/01 06:40:15;;;;;;;25.60;12.10;;;2.80;99.90;;;;;;5091996;28;20048;-77
2023/12/01 06:42:52;;;;;;;27.53;10.87;;;2.70;99.90;;;;;;5091961;28;20020;-77
2023/12/01 06:45:19;;;;;;;26.23;10.67;;;2.70;99.90;;;;;;5093231;28;20099;-76
2023/12/01 06:47:47;;;;;;;22.57;10.77;;;2.70;99.90;;;;;;5091736;28;20059;-76
2023/12/01 06:50:17;;;;;;;25.07;11.93;;;2.70;99.90;;;;;;5093455;28;20031;-76
2023/12/01 06:52:45;;;;;;;24.07;11.07;;;2.70;99.90;;;;;;5092505;28;20047;-77
2023/12/01 06:55:11;;;;;;;23.33;10.80;;;2.70;99.90;;;;;;5091935;28;20031;-76
2023/12/01 06:57:41;;;;;;;25.37;11.27;;;2.70;99.90;;;;;;5091507;28;20024;-77
2023/12/01 07:00:33;;;;;;;22.63;11.23;;;2.80;99.90;;;;;;5092241;28;20085;-77
2023/12/01 07:03:09;;;;;;;19.77;10.27;;;2.70;99.90;;;;;;5091539;28;20028;-77
2023/12/01 07:05:37;;;;;;;23.70;10.57;;;2.70;99.90;;;;;;5093410;28;20024;-77
2023/12/01 07:08:06;;;;;;;25.30;10.93;;;2.80;99.90;;;;;;5091868;28;20020;-77
2023/12/01 07:10:32;;;;;;;22.00;10.97;;;2.70;99.90;;;;;;5092017;28;20449;-76
2023/12/01 07:12:59;;;;;;;20.43;10.60;;;2.70;99.90;;;;;;5091468;28;20119;-77
2023/12/01 07:15:25;;;;;;;22.20;10.50;;;2.70;99.90;;;;;;5092027;28;20031;-79
2023/12/01 07:17:56;;;;;;;23.20;10.93;;;2.70;99.90;;;;;;5091634;28;20119;-79
2023/12/01 07:20:22;;;;;;;22.63;11.17;;;2.70;99.90;;;;;;5091897;28;20112;-77
2023/12/01 07:22:49;;;;;;;23.80;11.03;;;2.70;99.90;;;;;;5091352;28;20498;-77
2023/12/01 07:25:23;;;;;;;19.73;9.80;;;2.70;99.90;;;;;;5092226;28;20028;-77
2023/12/01 07:27:52;;;;;;;25.37;9.93;;;2.70;99.90;;;;;;5095454;28;20028;-77
2023/12/01 07:30:18;;;;;;;23.43;10.57;;;2.70;99.90;;;;;;5095688;28;20046;-77
2023/12/01 07:32:45;;;;;;;20.93;10.73;;;2.80;99.90;;;;;;5096262;28;20035;-78
2023/12/01 07:35:10;;;;;;;19.33;9.37;;;2.70;99.90;;;;;;5096929;28;20028;-78
2023/12/01 07:37:37;;;;;;;22.77;10.13;;;2.70;99.90;;;;;;5095669;28;20039;-77
2023/12/01 07:40:06;;;;;;;22.80;10.90;;;2.80;99.90;;;;;;5094777;28;20048;-77
2023/12/01 07:42:32;;;;;;;20.20;9.90;;;2.80;99.90;;;;;;5096609;28;20023;-77
2023/12/01 07:44:58;;;;;;;22.53;10.80;;;2.80;99.90;;;;;;5094898;28;20274;-77
2023/12/01 07:47:24;;;;;;;20.40;10.07;;;2.80;99.90;;;;;;5096255;28;20111;-77
2023/12/01 07:49:50;;;;;;;22.87;9.97;;;2.90;99.90;;;;;;5095975;28;20530;-77
2023/12/01 07:52:15;;;;;;;21.93;10.07;;;2.90;99.90;;;;;;5094965;28;20426;-77
2023/12/01 07:54:41;;;;;;;22.40;11.00;;;2.90;99.90;;;;;;5094678;28;20168;-78
2023/12/01 07:57:06;;;;;;;22.03;10.77;;;2.90;99.90;;;;;;5094952;28;20051;-77
2023/12/01 07:59:32;;;;;;;23.93;10.80;;;2.90;99.90;;;;;;5095035;28;20032;-77
2023/12/01 08:01:58;;;;;;;19.87;10.17;;;2.80;99.90;;;;;;5094364;28;20028;-78
2023/12/01 08:04:23;;;;;;;23.23;10.93;;;2.90;99.90;;;;;;5095011;28;20028;-77
2023/12/01 08:06:49;;;;;;;21.37;10.57;;;2.90;99.90;;;;;;5095489;28;20032;-77
2023/12/01 08:09:16;;;;;;;23.50;9.87;;;2.90;99.90;;;;;;5094843;28;20127;-77
2023/12/01 08:11:43;;;;;;;21.87;10.20;;;2.90;99.90;;;;;;5095129;28;20027;-77
2023/12/01 08:14:10;;;;;;;24.73;10.60;;;2.90;99.90;;;;;;5094486;28;20028;-77
2023/12/01 08:16:36;;;;;;;20.93;9.67;;;2.90;99.90;;;;;;5094442;28;20032;-77
2023/12/01 08:19:01;;;;;;;21.40;10.40;;;2.90;99.90;;;;;;5095147;28;20032;-77
2023/12/01 08:21:27;;;;;;;23.33;10.40;;;2.90;99.90;;;;;;5094382;28;20024;-77
2023/12/01 08:23:52;;;;;;;20.23;9.63;;;3.00;99.90;;;;;;5094173;28;20067;-77
2023/12/01 08:26:22;;;;;;;20.77;10.43;;;3.00;99.90;;;;;;5094581;28;20046;-77
2023/12/01 08:28:47;;;;;;;23.00;10.83;;;2.90;99.90;;;;;;5093971;28;20465;-77
2023/12/01 08:31:13;;;;;;;22.17;10.47;;;3.00;99.90;;;;;;5095738;28;20020;-77
2023/12/01 08:33:39;;;;;;;20.47;9.27;;;3.00;99.90;;;;;;5095560;28;20228;-77
2023/12/01 08:36:05;;;;;;;20.70;10.07;;;3.00;99.90;;;;;;5093621;28;20034;-77
2023/12/01 08:38:30;;;;;;;23.57;10.53;;;3.00;99.90;;;;;;5094989;28;20075;-77
2023/12/01 08:40:56;;;;;;;22.10;10.53;;;3.00;99.90;;;;;;5093633;28;20054;-78
2023/12/01 08:43:22;;;;;;;21.10;10.07;;;3.00;99.90;;;;;;5095475;28;20016;-78
2023/12/01 08:45:47;;;;;;;21.60;10.10;;;3.00;99.90;;;;;;5094905;28;20449;-78
2023/12/01 08:48:13;;;;;;;22.90;10.70;;;3.00;99.90;;;;;;5094092;28;20034;-78
2023/12/01 08:50:38;;;;;;;20.90;9.83;;;3.10;99.90;;;;;;5094251;28;20027;-78
2023/12/01 08:53:05;;;;;;;22.17;10.03;;;3.10;99.90;;;;;;5093602;28;20032;-78
2023/12/01 08:55:31;;;;;;;22.73;11.17;;;3.10;99.90;;;;;;5094040;28;20024;-78
2023/12/01 08:57:56;;;;;;;21.80;10.23;;;3.20;99.90;;;;;;5093781;28;20024;-78
2023/12/01 09:00:22;;;;;;;23.50;10.73;;;3.20;99.90;;;;;;5093886;28;20028;-78
2023/12/01 09:02:49;;;;;;;23.60;10.53;;;3.20;99.90;;;;;;5094292;28;20377;-78
2023/12/01 09:05:14;;;;;;;22.77;10.23;;;3.20;99.90;;;;;;5093838;28;20032;-78
2023/12/01 09:07:40;;;;;;;22.47;10.87;;;3.20;99.90;;;;;;5093672;28;20039;-77
2023/12/01 09:10:06;;;;;;;23.30;10.43;;;3.20;99.90;;;;;;5094580;28;20028;-78
2023/12/01 09:12:31;;;;;;;24.23;10.90;;;3.30;99.90;;;;;;5094781;28;20064;-77
2023/12/01 09:14:57;;;;;;;24.30;11.57;;;3.20;99.90;;;;;;5093041;28;20062;-77
2023/12/01 09:17:23;;;;;;;23.97;10.60;;;3.20;99.90;;;;;;5094788;28;20031;-77
2023/12/01 09:19:48;;;;;;;29.10;10.53;;;3.20;99.90;;;;;;5092993;28;20467;-77
2023/12/01 09:22:14;;;;;;;24.80;10.57;;;3.20;99.90;;;;;;5093723;28;20038;-77
2023/12/01 09:24:39;;;;;;;22.40;8.97;;;3.30;99.90;;;;;;5093396;28;20526;-77
2023/12/01 09:27:05;;;;;;;26.13;11.03;;;3.30;99.90;;;;;;5092462;28;20016;-77
2023/12/01 09:29:30;;;;;;;22.63;10.40;;;3.30;99.90;;;;;;5094623;28;20041;-78
2023/12/01 09:31:56;;;;;;;27.37;11.10;;;3.30;99.90;;;;;;5092859;28;20436;-77
2023/12/01 09:34:22;;;;;;;24.33;10.77;;;3.30;99.90;;;;;;5094475;28;20028;-77
2023/12/01 09:36:50;;;;;;;24.40;10.60;;;3.30;99.90;;;;;;5094330;28;20099;-78
2023/12/01 09:39:16;;;;;;;24.30;10.53;;;3.30;99.90;;;;;;5092821;28;20052;-78
2023/12/01 09:41:42;;;;;;;31.13;11.70;;;3.30;99.90;;;;;;5093343;28;20024;-78
2023/12/01 09:44:08;;;;;;;24.83;11.03;;;3.40;99.90;;;;;;5092728;28;20051;-78
2023/12/01 09:46:35;;;;;;;26.30;10.73;;;3.40;99.90;;;;;;5094353;28;20027;-77
2023/12/01 09:49:05;;;;;;;25.60;10.47;;;3.40;99.90;;;;;;5091998;28;20365;-77
2023/12/01 09:51:34;;;;;;;29.53;11.27;;;3.40;99.90;;;;;;5093101;28;20028;-77
2023/12/01 09:54:02;;;;;;;31.80;11.83;;;3.50;99.90;;;;;;5092308;28;20041;-76
2023/12/01 09:56:28;;;;;;;26.57;11.07;;;3.40;99.90;;;;;;5093757;28;20027;-76
2023/12/01 09:58:55;;;;;;;27.47;10.63;;;3.40;99.90;;;;;;5093516;28;20427;-77
2023/12/01 10:01:21;;;;;;;28.40;11.03;;;3.40;99.90;;;;;;5094152;28;20103;-77
2023/12/01 10:03:47;;;;;;;32.93;12.47;;;3.50;99.90;;;;;;5092399;28;20541;-77
2023/12/01 10:06:12;;;;;;;28.70;11.70;;;3.50;99.90;;;;;;5094116;28;20032;-77
2023/12/01 10:08:38;;;;;;;26.10;10.47;;;3.50;99.90;;;;;;5092815;28;20082;-77
2023/12/01 10:11:24;;;;;;;26.57;11.37;;;3.50;99.90;;;;;;5092377;28;20028;-76
2023/12/01 10:13:51;;;;;;;32.30;10.73;;;3.50;99.90;;;;;;5092390;28;20028;-77
2023/12/01 10:16:18;;;;;;;26.97;11.10;;;3.50;99.90;;;;;;5092878;28;20028;-76
2023/12/01 10:18:57;;;;;;;26.80;11.17;;;3.50;99.90;;;;;;5093525;28;20036;-76
2023/12/01 10:21:47;;;;;;;26.67;11.27;;;3.50;99.90;;;;;;5093643;28;20020;-76
2023/12/01 10:24:17;;;;;;;29.50;11.47;;;3.60;99.90;;;;;;5092516;28;20488;-76
2023/12/01 10:26:47;;;;;;;30.20;11.10;;;3.60;99.90;;;;;;5093723;28;20024;-76
2023/12/01 10:29:33;;;;;;;33.93;12.40;;;3.60;99.90;;;;;;5093786;28;20036;-76
2023/12/01 10:32:04;;;;;;;32.97;11.60;;;3.60;99.90;;;;;;5091853;28;20484;-76
2023/12/01 10:34:30;;;;;;;29.97;11.57;;;3.60;99.90;;;;;;5093612;28;20020;-76
2023/12/01 10:36:56;;;;;;;29.63;11.63;;;3.50;99.90;;;;;;5092853;28;20024;-77
2023/12/01 10:39:29;;;;;;;30.60;11.37;;;3.60;99.90;;;;;;5091788;28;20052;-77
2023/12/01 10:41:59;;;;;;;27.90;11.97;;;3.60;99.90;;;;;;5092097;28;20020;-77
2023/12/01 10:44:26;;;;;;;31.97;12.17;;;3.60;99.90;;;;;;5091967;28;20028;-76
2023/12/01 10:46:53;;;;;;;30.07;11.90;;;3.60;99.90;;;;;;5092441;28;20545;-76
2023/12/01 10:49:20;;;;;;;29.07;11.10;;;3.60;99.90;;;;;;5092812;28;20461;-77
2023/12/01 10:51:54;;;;;;;29.00;11.50;;;3.60;99.90;;;;;;5091735;28;20024;-79
2023/12/01 10:54:23;;;;;;;31.70;11.90;;;3.60;99.90;;;;;;5092133;28;20024;-76
2023/12/01 10:57:06;;;;;;;30.00;11.47;;;3.60;99.90;;;;;;5091378;28;20034;-78
2023/12/01 10:59:34;;;;;;;30.23;11.67;;;3.60;99.90;;;;;;5093560;28;20028;-76
2023/12/01 11:02:00;;;;;;;30.07;11.40;;;3.60;99.90;;;;;;5094887;28;20528;-76
2023/12/01 11:04:26;;;;;;;30.13;10.83;;;3.60;99.90;;;;;;5096111;28;20072;-77
2023/12/01 11:07:10;;;;;;;29.00;11.53;;;3.60;99.90;;;;;;5088827;28;20032;-77
2023/12/01 11:10:13;;;;;;;29.87;12.20;;;3.60;99.90;;;;;;5094304;28;20089;-75
2023/12/01 11:12:46;;;;;;;;;;;3.60;99.90;;;;;;5089693;28;20103;-76
2023/12/01 11:15:27;;;;;;;32.17;11.43;;;3.60;99.90;;;;;;5075085;28;20299;-77
2023/12/01 11:17:54;;;;;;;30.35;11.73;;;3.60;99.90;;;;;;5088277;28;20029;-76
2023/12/01 11:20:34;;;;;;;32.37;11.33;;;3.60;99.90;;;;;;5082061;28;20032;-76
2023/12/01 11:23:09;;;;;;;31.07;12.43;;;3.60;99.90;;;;;;5091039;28;20031;-75
2023/12/01 11:25:42;;;;;;;29.17;11.27;;;3.60;99.90;;;;;;5074668;28;20037;-76
2023/12/01 11:28:27;;;;;;;30.13;11.70;;;3.60;99.90;;;;;;5091932;28;20028;-78
2023/12/01 11:31:09;;;;;;;35.83;12.63;;;3.70;99.90;;;;;;5094831;28;20046;-77
2023/12/01 11:33:39;;;;;;;31.58;12.32;;;3.60;99.90;;;;;;5075427;28;20025;-76
2023/12/01 11:36:28;;;;;;;30.87;12.23;;;3.60;99.90;;;;;;5080886;28;20081;-76
2023/12/01 11:41:55;;;;;;;30.23;11.70;;;3.70;99.90;;;;;;5080843;28;20074;-75
2023/12/01 11:44:29;;;;;;;31.50;11.70;;;3.70;99.90;;;;;;5095702;28;20024;-76
2023/12/01 11:46:57;;;;;;;26.47;11.50;;;3.60;99.90;;;;;;5079002;28;20031;-75
2023/12/01 11:49:31;;;;;;;30.50;12.27;;;3.70;99.90;;;;;;5093083;28;20111;-76
2023/12/01 11:52:02;;;;;;;32.00;12.07;;;3.60;99.90;;;;;;5087111;28;20111;-76
2023/12/01 11:54:33;;;;;;;33.90;13.03;;;3.70;99.90;;;;;;5074301;28;20477;-77
2023/12/01 11:56:58;;;;;;;31.43;13.40;;;3.70;99.90;;;;;;5090710;28;20472;-76
2023/12/01 11:59:24;;;;;;;30.83;11.83;;;3.70;99.90;;;;;;5094659;28;20074;-77
2023/12/01 12:01:53;;;;;;;28.47;11.63;;;3.70;99.90;;;;;;5084362;28;20470;-76
2023/12/01 12:04:19;;;;;;;30.87;12.50;;;3.70;99.90;;;;;;5083690;28;20027;-78
2023/12/01 12:06:46;;;;;;;35.43;12.67;;;3.70;99.90;;;;;;5088465;28;20393;-77
2023/12/01 12:09:17;;;;;;;27.70;11.40;;;3.70;99.90;;;;;;5094585;28;20057;-77
2023/12/01 12:11:55;;;;;;;29.50;11.25;;;3.70;99.90;;;;;;5093342;28;20066;-76
2023/12/01 12:14:25;;;;;;;33.80;11.47;;;3.70;99.90;;;;;;5092444;28;20036;-77
2023/12/01 12:16:51;;;;;;;27.87;11.60;;;3.70;99.90;;;;;;5090840;28;20020;-77
2023/12/01 12:19:21;;;;;;;28.40;12.43;;;3.70;99.90;;;;;;5093607;28;20036;-76
2023/12/01 12:21:48;;;;;;;30.20;11.53;;;3.60;99.90;;;;;;5093398;28;20020;-77
2023/12/01 12:24:14;;;;;;;26.50;11.80;;;3.70;99.90;;;;;;5093135;28;20024;-78
2023/12/01 12:26:40;;;;;;;26.20;11.43;;;3.80;99.90;;;;;;5094106;28;20032;-76
2023/12/01 12:29:08;;;;;;;26.73;11.53;;;3.80;99.90;;;;;;5077151;28;20119;-77
2023/12/01 12:31:38;;;;;;;27.20;11.13;;;3.80;99.90;;;;;;5093225;28;20028;-75
2023/12/01 12:34:09;;;;;;;26.77;11.40;;;3.80;99.90;;;;;;5093189;28;20101;-76
2023/12/01 12:36:38;;;;;;;26.60;11.07;;;3.80;99.90;;;;;;5093348;28;20040;-76
2023/12/01 12:39:16;;;;;;;27.93;11.80;;;3.80;99.90;;;;;;5092864;28;20677;-77
2023/12/01 12:41:59;;;;;;;29.87;12.40;;;3.80;99.90;;;;;;5078703;28;20066;-77
2023/12/01 12:44:25;;;;;;;30.70;11.67;;;3.70;99.90;;;;;;5094661;28;20077;-77
2023/12/01 12:47:02;;;;;;;28.30;12.13;;;3.80;99.90;;;;;;5094167;28;20376;-80
2023/12/01 12:49:31;;;;;;;29.07;11.57;;;3.80;99.90;;;;;;5091762;28;20029;-76